Time;durP1;ratioP1;P1;durP2;ratioP2;P2;SDS_P1;SDS_P2;PMS_P1;PMS_P2;Temp;Humidity;BMP_temperature;BMP_pressure;BME280_temperature;BME280_humidity;BME280_pressure;Samples;Min_cycle;Max_cycle;Signal;HPM_P1;HPM_P2
2022/10/10 00:00:32;;;;;;;13.80;10.70;;;12.70;37.00;;;;;;5004378;28;20479;-66
2022/10/10 00:02:58;;;;;;;16.00;12.10;;;12.80;37.10;;;;;;5004267;28;20463;-67
2022/10/10 00:05:25;;;;;;;14.80;10.70;;;12.80;37.20;;;;;;5003137;28;20466;-66
2022/10/10 00:07:53;;;;;;;16.00;11.03;;;12.80;37.30;;;;;;4992538;28;20514;-66
2022/10/10 00:10:20;;;;;;;16.73;11.93;;;12.80;37.40;;;;;;5000397;28;20456;-66
2022/10/10 00:12:47;;;;;;;19.30;12.53;;;12.90;37.50;;;;;;5003684;28;20464;-66
2022/10/10 00:15:15;;;;;;;15.17;11.20;;;12.90;37.50;;;;;;5002630;28;20459;-66
2022/10/10 00:17:42;;;;;;;19.87;13.13;;;12.90;37.60;;;;;;4996824;28;20564;-66
2022/10/10 00:20:10;;;;;;;16.03;12.30;;;12.90;37.80;;;;;;5004848;28;21129;-66
2022/10/10 00:22:37;;;;;;;14.97;11.40;;;12.90;37.70;;;;;;4999953;28;20473;-66
2022/10/10 00:25:07;;;;;;;16.50;12.73;;;12.90;38.00;;;;;;5011360;28;20839;-66
2022/10/10 00:27:34;;;;;;;18.47;13.97;;;12.90;37.80;;;;;;4997932;28;20878;-66
2022/10/10 00:30:01;;;;;;;19.27;14.20;;;12.90;37.90;;;;;;5004681;28;20467;-66
2022/10/10 00:32:28;;;;;;;22.07;15.40;;;12.90;38.00;;;;;;5004676;28;20479;-66
2022/10/10 00:34:55;;;;;;;19.10;15.67;;;13.00;38.00;;;;;;5002546;28;20460;-67
2022/10/10 00:37:21;;;;;;;19.70;15.57;;;12.90;38.10;;;;;;5005216;28;20483;-67
2022/10/10 00:39:48;;;;;;;18.83;15.90;;;12.90;38.10;;;;;;5006500;28;20701;-67
2022/10/10 00:42:18;;;;;;;18.07;14.40;;;13.00;38.10;;;;;;5006207;28;20459;-67
2022/10/10 00:44:46;;;;;;;21.40;14.80;;;13.00;38.10;;;;;;5005747;28;20456;-67
2022/10/10 00:47:13;;;;;;;16.70;13.00;;;12.90;38.10;;;;;;5000256;28;20507;-66
2022/10/10 00:49:43;;;;;;;21.97;15.50;;;13.00;38.10;;;;;;5004784;28;20471;-66
2022/10/10 00:52:11;;;;;;;19.87;14.53;;;12.90;38.20;;;;;;5006029;28;20448;-66
2022/10/10 00:54:39;;;;;;;19.20;14.50;;;12.90;38.30;;;;;;5007745;28;20476;-66
2022/10/10 00:57:10;;;;;;;22.00;15.97;;;12.90;38.40;;;;;;5005659;28;20942;-67
2022/10/10 00:59:40;;;;;;;21.80;15.80;;;12.90;38.90;;;;;;5008129;28;20467;-66
2022/10/10 01:02:07;;;;;;;20.63;15.30;;;12.90;38.50;;;;;;5005003;28;20484;-66
2022/10/10 01:04:37;;;;;;;21.80;15.80;;;12.90;38.40;;;;;;5005471;28;20470;-66
2022/10/10 01:07:07;;;;;;;21.30;15.30;;;12.80;38.40;;;;;;5006798;28;20460;-66
2022/10/10 01:09:37;;;;;;;26.23;17.20;;;12.80;38.50;;;;;;5008212;28;20841;-67
2022/10/10 01:12:16;;;;;;;19.97;15.90;;;12.80;38.60;;;;;;5004911;28;20464;-67
2022/10/10 01:14:48;;;;;;;20.57;14.77;;;12.80;38.80;;;;;;5006222;28;20471;-67
2022/10/10 01:17:20;;;;;;;19.67;15.70;;;12.80;38.80;;;;;;5006764;28;20460;-66
2022/10/10 01:20:18;;;;;;;27.37;17.10;;;12.80;38.80;;;;;;5006225;28;20459;-67
2022/10/10 01:23:02;;;;;;;21.27;15.67;;;12.80;39.10;;;;;;5006981;28;20531;-66
2022/10/10 01:25:32;;;;;;;22.03;15.77;;;12.80;39.10;;;;;;5005614;28;21024;-66
2022/10/10 01:28:02;;;;;;;23.27;15.90;;;12.70;39.10;;;;;;5008393;28;20984;-66
2022/10/10 01:30:31;;;;;;;21.10;16.07;;;12.70;39.20;;;;;;5005952;28;20463;-66
2022/10/10 01:33:04;;;;;;;28.60;17.20;;;12.70;39.20;;;;;;5007967;28;20526;-66
2022/10/10 01:35:43;;;;;;;21.23;14.83;;;12.70;39.20;;;;;;5005810;28;20466;-66
2022/10/10 01:38:26;;;;;;;26.27;16.53;;;12.70;39.30;;;;;;5006296;28;20491;-66
2022/10/10 01:40:56;;;;;;;21.80;16.00;;;12.70;39.40;;;;;;5005221;28;20472;-66
2022/10/10 01:43:25;;;;;;;21.83;16.60;;;12.70;39.40;;;;;;5006157;28;20516;-66
2022/10/10 01:45:54;;;;;;;21.27;15.13;;;12.70;39.30;;;;;;5001080;28;20889;-65
2022/10/10 01:48:25;;;;;;;21.67;15.03;;;12.70;39.30;;;;;;5004120;28;20874;-66
2022/10/10 01:51:13;;;;;;;20.87;15.80;;;12.70;39.40;;;;;;5008041;28;20940;-66
2022/10/10 01:53:48;;;;;;;22.03;16.10;;;12.60;39.60;;;;;;5003043;28;20459;-65
2022/10/10 01:56:25;;;;;;;20.60;15.80;;;12.60;39.60;;;;;;5005469;28;20466;-66
2022/10/10 01:59:07;;;;;;;25.13;16.60;;;12.60;39.70;;;;;;5001785;28;20743;-66
2022/10/10 02:01:43;;;;;;;19.53;15.30;;;12.60;39.70;;;;;;5005746;28;20480;-66
2022/10/10 02:04:19;;;;;;;18.97;14.90;;;12.70;39.70;;;;;;5004435;28;20459;-65
2022/10/10 02:06:51;;;;;;;19.93;14.10;;;12.70;39.70;;;;;;4996968;28;21031;-66
2022/10/10 02:09:22;;;;;;;23.40;16.00;;;12.70;39.60;;;;;;5000886;28;20477;-66
2022/10/10 02:11:49;;;;;;;26.73;15.90;;;12.70;39.70;;;;;;5008784;28;20458;-66
2022/10/10 02:14:20;;;;;;;20.03;15.57;;;12.70;39.80;;;;;;5005250;28;20464;-66
2022/10/10 02:16:53;;;;;;;19.57;14.70;;;12.70;39.70;;;;;;5001553;28;20470;-66
2022/10/10 02:19:22;;;;;;;21.93;15.87;;;12.70;39.80;;;;;;5005977;28;20996;-67
2022/10/10 02:21:51;;;;;;;21.77;16.73;;;12.70;39.70;;;;;;4995535;28;20583;-66
2022/10/10 02:24:19;;;;;;;21.30;15.27;;;12.70;40.00;;;;;;5003756;28;20480;-65
2022/10/10 02:26:52;;;;;;;22.83;14.90;;;12.70;39.90;;;;;;5001797;28;21018;-65
2022/10/10 02:29:24;;;;;;;19.60;13.90;;;12.60;40.00;;;;;;5006678;28;21019;-66
2022/10/10 02:31:59;;;;;;;18.40;14.77;;;12.60;39.90;;;;;;5003560;28;20483;-66
2022/10/10 02:34:30;;;;;;;17.80;15.03;;;12.60;40.00;;;;;;4999149;28;20459;-65
2022/10/10 02:36:59;;;;;;;22.30;15.87;;;12.60;39.90;;;;;;5007528;28;20464;-65
2022/10/10 02:39:31;;;;;;;20.70;15.43;;;12.60;39.80;;;;;;5010852;22;20491;-69
2022/10/10 02:41:58;;;;;;;20.73;14.77;;;12.70;40.10;;;;;;4998415;28;20487;-69
2022/10/10 02:44:25;;;;;;;17.90;15.17;;;12.70;40.00;;;;;;5006867;28;20452;-69
2022/10/10 02:46:54;;;;;;;17.27;13.60;;;12.70;39.90;;;;;;5002234;28;20495;-69
2022/10/10 02:49:24;;;;;;;21.70;15.23;;;12.70;39.80;;;;;;5006212;28;20725;-68
2022/10/10 02:51:50;;;;;;;19.53;15.20;;;12.70;39.80;;;;;;5004948;28;20527;-69
2022/10/10 02:54:17;;;;;;;18.30;14.43;;;12.70;39.80;;;;;;5002263;28;20491;-68
2022/10/10 02:56:44;;;;;;;16.97;14.07;;;12.70;39.80;;;;;;5005195;28;21052;-69
2022/10/10 02:59:11;;;;;;;19.20;14.40;;;12.60;39.80;;;;;;5003895;28;20827;-69
2022/10/10 03:01:37;;;;;;;17.37;14.20;;;12.70;40.00;;;;;;4995098;28;20488;-68
2022/10/10 03:04:06;;;;;;;17.63;14.80;;;12.70;39.90;;;;;;4999970;28;20460;-69
2022/10/10 03:06:32;;;;;;;20.67;14.80;;;12.70;40.00;;;;;;4997684;28;20471;-69
2022/10/10 03:08:59;;;;;;;16.70;14.60;;;12.70;39.80;;;;;;5000873;28;20480;-69
2022/10/10 03:11:26;;;;;;;22.57;16.33;;;12.60;39.90;;;;;;5000458;28;20456;-69
2022/10/10 03:13:53;;;;;;;19.20;15.10;;;12.70;40.00;;;;;;5003332;28;20844;-69
2022/10/10 03:16:19;;;;;;;19.13;14.87;;;12.60;39.90;;;;;;4998460;28;20459;-69
2022/10/10 03:18:46;;;;;;;18.57;14.50;;;12.60;39.80;;;;;;5002488;28;20488;-69
2022/10/10 03:21:14;;;;;;;18.73;14.40;;;12.70;40.10;;;;;;4997869;28;20524;-69
2022/10/10 03:23:41;;;;;;;20.63;14.50;;;12.60;39.80;;;;;;5003493;28;21176;-69
2022/10/10 03:26:08;;;;;;;18.07;13.80;;;12.60;39.90;;;;;;4998472;28;20544;-68
2022/10/10 03:28:37;;;;;;;21.10;14.63;;;12.70;40.10;;;;;;5001056;28;20487;-68
2022/10/10 03:31:04;;;;;;;18.23;13.87;;;12.70;40.00;;;;;;5002665;28;21013;-68
2022/10/10 03:33:30;;;;;;;18.37;14.60;;;12.60;39.90;;;;;;5006454;28;21168;-68
2022/10/10 03:35:57;;;;;;;23.60;15.57;;;12.60;39.90;;;;;;5000337;28;20459;-68
2022/10/10 03:38:25;;;;;;;20.60;14.13;;;12.60;40.00;;;;;;5002993;28;20494;-68
2022/10/10 03:40:52;;;;;;;18.00;14.50;;;12.60;39.90;;;;;;4998226;28;20467;-69
2022/10/10 03:43:19;;;;;;;19.30;14.57;;;12.60;40.00;;;;;;5004153;28;20492;-68
2022/10/10 03:45:47;;;;;;;19.60;14.47;;;12.60;40.00;;;;;;4997681;28;20461;-68
2022/10/10 03:48:14;;;;;;;19.10;15.27;;;12.60;40.20;;;;;;5004802;28;20902;-69
2022/10/10 03:50:41;;;;;;;18.10;13.83;;;12.60;40.00;;;;;;4997764;28;20471;-69
2022/10/10 03:53:08;;;;;;;18.60;14.70;;;12.60;40.10;;;;;;5002070;28;20477;-69
2022/10/10 03:55:39;;;;;;;16.53;13.80;;;12.60;40.10;;;;;;4999556;28;20456;-69
2022/10/10 03:58:06;;;;;;;17.83;13.60;;;12.60;40.30;;;;;;5003586;28;20473;-69
2022/10/10 04:00:32;;;;;;;18.97;14.60;;;12.60;40.00;;;;;;4999269;28;21101;-68
2022/10/10 04:02:59;;;;;;;26.60;16.33;;;12.60;40.10;;;;;;5000432;28;20495;-67
2022/10/10 04:05:26;;;;;;;20.90;14.90;;;12.60;40.30;;;;;;5001549;28;20455;-70
2022/10/10 04:07:53;;;;;;;21.77;16.10;;;12.60;40.20;;;;;;5003834;28;20829;-70
2022/10/10 04:10:20;;;;;;;20.10;16.00;;;12.60;40.50;;;;;;5000679;28;20976;-70
2022/10/10 04:12:48;;;;;;;20.97;16.43;;;12.60;40.40;;;;;;5009188;28;20456;-70
2022/10/10 04:15:15;;;;;;;22.23;15.83;;;12.60;40.50;;;;;;5006506;28;20459;-70
2022/10/10 04:17:42;;;;;;;20.37;16.77;;;12.60;40.70;;;;;;5005729;28;20808;-69
2022/10/10 04:20:09;;;;;;;21.77;16.40;;;12.60;40.60;;;;;;5009802;28;20562;-71
2022/10/10 04:22:36;;;;;;;21.10;16.40;;;12.60;40.70;;;;;;4995930;28;20975;-71
2022/10/10 04:25:02;;;;;;;24.00;17.73;;;12.60;40.70;;;;;;4998741;28;20460;-71
2022/10/10 04:27:29;;;;;;;20.87;15.83;;;12.60;40.90;;;;;;5004186;28;20463;-71
2022/10/10 04:29:57;;;;;;;20.97;17.00;;;12.60;40.80;;;;;;5001466;28;20482;-70
2022/10/10 04:32:24;;;;;;;21.23;17.40;;;12.60;41.10;;;;;;5007799;28;20484;-74
2022/10/10 04:34:51;;;;;;;22.83;16.77;;;12.60;41.10;;;;;;4998277;28;20467;-71
2022/10/10 04:37:17;;;;;;;22.13;17.40;;;12.60;41.10;;;;;;5008970;28;20459;-70
2022/10/10 04:39:44;;;;;;;22.90;16.70;;;12.60;41.20;;;;;;5000739;28;20487;-70
2022/10/10 04:42:11;;;;;;;23.83;15.40;;;12.60;41.30;;;;;;5008268;28;20479;-69
2022/10/10 04:44:38;;;;;;;19.43;15.80;;;12.60;41.40;;;;;;5002375;28;20459;-74
2022/10/10 04:47:06;;;;;;;21.27;15.90;;;12.60;41.40;;;;;;5004932;28;20470;-72
2022/10/10 04:49:33;;;;;;;21.90;16.60;;;12.60;41.70;;;;;;5005084;28;20479;-71
2022/10/10 04:52:00;;;;;;;24.23;17.43;;;12.60;41.80;;;;;;5008686;28;20458;-72
2022/10/10 04:54:26;;;;;;;24.70;19.30;;;12.60;41.90;;;;;;5006357;28;20987;-69
2022/10/10 04:56:53;;;;;;;21.73;16.50;;;12.60;42.00;;;;;;5006574;28;20464;-72
2022/10/10 04:59:20;;;;;;;19.23;16.20;;;12.60;42.40;;;;;;5004483;28;20479;-71
2022/10/10 05:01:47;;;;;;;22.50;17.33;;;12.50;42.40;;;;;;5007702;28;20475;-71
2022/10/10 05:04:15;;;;;;;23.30;18.47;;;12.50;42.40;;;;;;4995821;28;20469;-72
2022/10/10 05:06:42;;;;;;;23.70;18.93;;;12.60;42.70;;;;;;5001483;28;21018;-71
2022/10/10 05:09:09;;;;;;;24.57;16.33;;;12.60;42.80;;;;;;5003302;28;20486;-72
2022/10/10 05:11:35;;;;;;;21.97;17.17;;;12.60;42.70;;;;;;5008718;28;21172;-73
2022/10/10 05:14:02;;;;;;;22.90;17.40;;;12.60;42.40;;;;;;5008432;28;20463;-71
2022/10/10 05:16:32;;;;;;;24.77;18.23;;;12.60;42.50;;;;;;5002867;28;20467;-71
2022/10/10 05:19:00;;;;;;;24.00;18.07;;;12.60;42.60;;;;;;5006915;28;20866;-71
2022/10/10 05:21:28;;;;;;;23.30;18.03;;;12.60;42.50;;;;;;5007715;28;20464;-71
2022/10/10 05:23:55;;;;;;;21.77;16.90;;;12.60;42.40;;;;;;5007193;28;20460;-71
2022/10/10 05:26:22;;;;;;;30.10;18.53;;;12.70;42.60;;;;;;4998223;28;20461;-71
2022/10/10 05:28:48;;;;;;;23.23;18.40;;;12.70;42.80;;;;;;5004531;28;20488;-71
2022/10/10 05:31:15;;;;;;;23.40;17.30;;;12.60;42.50;;;;;;5005663;28;20472;-71
2022/10/10 05:33:42;;;;;;;23.37;17.00;;;12.70;42.60;;;;;;5006834;28;20456;-70
2022/10/10 05:36:12;;;;;;;21.80;17.20;;;12.70;42.30;;;;;;5009583;28;20490;-70
2022/10/10 05:38:41;;;;;;;26.63;17.90;;;12.70;42.50;;;;;;5008496;28;20488;-70
2022/10/10 05:41:09;;;;;;;23.30;18.20;;;12.70;42.30;;;;;;5007324;28;20455;-70
2022/10/10 05:43:35;;;;;;;24.83;17.90;;;12.80;42.50;;;;;;5003420;28;20480;-71
2022/10/10 05:46:03;;;;;;;24.80;17.17;;;12.80;42.30;;;;;;5002476;28;20468;-70
2022/10/10 05:48:30;;;;;;;21.67;17.90;;;12.90;42.40;;;;;;5004759;28;20494;-71
2022/10/10 05:50:58;;;;;;;22.70;16.30;;;12.90;42.10;;;;;;5003554;28;20462;-71
2022/10/10 05:53:26;;;;;;;20.67;16.33;;;13.00;42.10;;;;;;5000138;28;20536;-71
2022/10/10 05:55:54;;;;;;;23.80;16.60;;;13.00;41.90;;;;;;5006383;28;20464;-71
2022/10/10 05:58:21;;;;;;;22.37;16.50;;;13.00;41.70;;;;;;5006484;28;20483;-72
2022/10/10 06:00:48;;;;;;;25.83;17.10;;;13.00;41.20;;;;;;5005101;28;20499;-71
2022/10/10 06:03:16;;;;;;;22.30;18.03;;;13.00;41.30;;;;;;5006354;28;20479;-73
2022/10/10 06:05:43;;;;;;;24.77;18.20;;;13.00;41.30;;;;;;5004332;28;20466;-73
2022/10/10 06:08:10;;;;;;;22.67;16.80;;;13.00;41.30;;;;;;5004272;28;21025;-72
2022/10/10 06:10:39;;;;;;;23.13;17.70;;;13.00;41.40;;;;;;5004196;28;20460;-71
2022/10/10 06:13:07;;;;;;;22.50;16.70;;;13.10;41.10;;;;;;5005440;28;20456;-72
2022/10/10 06:15:34;;;;;;;19.70;15.70;;;13.10;41.00;;;;;;4996072;28;20556;-72
2022/10/10 06:18:02;;;;;;;23.37;17.00;;;13.10;40.80;;;;;;5005462;28;20464;-72
2022/10/10 06:20:29;;;;;;;22.30;17.43;;;13.20;40.70;;;;;;5005721;28;20452;-72
2022/10/10 06:22:55;;;;;;;21.33;16.80;;;13.20;40.50;;;;;;5002773;28;20484;-72
2022/10/10 06:25:22;;;;;;;19.40;15.60;;;13.20;40.50;;;;;;4998777;28;20460;-71
2022/10/10 06:27:49;;;;;;;24.30;16.83;;;13.30;40.50;;;;;;5003446;28;20498;-70
2022/10/10 06:30:17;;;;;;;21.47;16.80;;;13.30;40.30;;;;;;5008013;28;20459;-70
2022/10/10 06:32:44;;;;;;;22.30;16.67;;;13.30;40.30;;;;;;5002271;28;20456;-70
2022/10/10 06:35:10;;;;;;;20.90;16.30;;;13.30;40.20;;;;;;5004187;28;20466;-71
2022/10/10 06:37:37;;;;;;;23.90;17.93;;;13.30;40.20;;;;;;5000278;28;20928;-70
2022/10/10 06:40:05;;;;;;;21.90;15.77;;;13.40;40.10;;;;;;5003838;28;20496;-71
2022/10/10 06:42:32;;;;;;;19.90;16.90;;;13.40;40.00;;;;;;5004260;28;20484;-71
2022/10/10 06:44:59;;;;;;;22.20;16.10;;;13.40;40.20;;;;;;5002961;28;20468;-70
2022/10/10 06:47:27;;;;;;;21.20;16.53;;;13.50;40.00;;;;;;5004941;28;20464;-70
2022/10/10 06:49:54;;;;;;;22.93;15.40;;;13.50;39.90;;;;;;5004237;28;20483;-70
2022/10/10 06:52:21;;;;;;;18.73;15.10;;;13.50;39.90;;;;;;4996210;28;20906;-75
2022/10/10 06:54:47;;;;;;;22.03;15.87;;;13.60;39.70;;;;;;4999929;28;20834;-76
2022/10/10 06:57:14;;;;;;;19.83;15.53;;;13.60;39.60;;;;;;4993986;28;20883;-74
2022/10/10 06:59:41;;;;;;;20.77;15.13;;;13.70;39.50;;;;;;5005783;28;21015;-74
2022/10/10 07:02:10;;;;;;;21.80;16.60;;;13.70;39.30;;;;;;5005692;28;20479;-74
2022/10/10 07:04:38;;;;;;;18.80;15.30;;;13.70;39.40;;;;;;5003792;28;20463;-74
2022/10/10 07:07:05;;;;;;;19.47;14.60;;;13.80;39.40;;;;;;4993798;28;20461;-75
2022/10/10 07:09:31;;;;;;;19.47;15.40;;;13.80;39.10;;;;;;5004906;28;20554;-76
2022/10/10 07:11:58;;;;;;;19.43;14.77;;;13.90;39.00;;;;;;5002002;28;20471;-79
2022/10/10 07:14:25;;;;;;;18.63;14.10;;;13.90;38.90;;;;;;5005299;28;20463;-75
2022/10/10 07:16:52;;;;;;;20.90;16.00;;;14.00;38.70;;;;;;5001687;28;20521;-77
2022/10/10 07:19:20;;;;;;;19.20;14.00;;;14.10;38.60;;;;;;5006752;28;20480;-77
2022/10/10 07:21:48;;;;;;;16.97;14.70;;;14.10;38.60;;;;;;5004734;28;20488;-74
2022/10/10 07:24:15;;;;;;;18.60;14.67;;;14.10;38.30;;;;;;5003185;28;20496;-74
2022/10/10 07:26:41;;;;;;;21.40;14.90;;;14.20;38.10;;;;;;5006755;28;20806;-71
2022/10/10 07:29:08;;;;;;;20.20;14.77;;;14.20;38.00;;;;;;5007712;28;20482;-75
2022/10/10 07:31:35;;;;;;;21.47;15.87;;;14.30;38.10;;;;;;5000160;28;20583;-70
2022/10/10 07:34:02;;;;;;;18.30;14.40;;;14.30;38.00;;;;;;5006992;28;20456;-73
2022/10/10 07:36:28;;;;;;;17.40;13.00;;;14.40;37.70;;;;;;5002225;28;20835;-74
2022/10/10 07:38:57;;;;;;;17.37;14.40;;;14.50;37.50;;;;;;5001914;28;20483;-77
2022/10/10 07:41:23;;;;;;;19.83;14.77;;;14.60;37.30;;;;;;5004693;28;20468;-72
2022/10/10 07:43:54;;;;;;;19.63;14.70;;;14.60;37.20;;;;;;5006391;28;20487;-82
2022/10/10 07:46:21;;;;;;;17.67;13.93;;;14.70;37.10;;;;;;5005220;28;20628;-74
2022/10/10 07:48:48;;;;;;;22.70;14.67;;;14.90;36.90;;;;;;5007820;28;20479;-75
2022/10/10 07:51:15;;;;;;;20.10;14.00;;;15.00;36.50;;;;;;5009355;28;21031;-79
2022/10/10 07:53:43;;;;;;;16.83;12.97;;;15.10;36.10;;;;;;5003152;28;20456;-74
2022/10/10 07:56:11;;;;;;;18.13;13.80;;;15.30;35.90;;;;;;5010008;28;20602;-82
2022/10/10 07:58:38;;;;;;;19.20;13.73;;;15.40;35.50;;;;;;5004634;28;20855;-73
2022/10/10 08:01:07;;;;;;;20.50;13.90;;;15.60;34.90;;;;;;5006560;28;20522;-71
2022/10/10 08:03:34;;;;;;;17.80;12.90;;;15.70;34.50;;;;;;5006377;28;20484;-71
2022/10/10 08:06:04;;;;;;;20.10;14.67;;;15.90;33.90;;;;;;5008723;28;21006;-71
2022/10/10 08:08:30;;;;;;;18.70;12.87;;;16.00;33.70;;;;;;5005740;28;20488;-72
2022/10/10 08:10:57;;;;;;;21.00;12.73;;;16.20;33.40;;;;;;5005616;28;20463;-72
2022/10/10 08:13:26;;;;;;;16.13;12.67;;;16.40;32.60;;;;;;5008804;28;20906;-71
2022/10/10 08:15:53;;;;;;;19.77;13.00;;;16.60;31.90;;;;;;5002756;28;20565;-71
2022/10/10 08:18:20;;;;;;;21.30;13.30;;;16.80;31.50;;;;;;5008190;28;20483;-65
2022/10/10 08:20:47;;;;;;;17.87;12.80;;;17.10;31.00;;;;;;5003975;28;20472;-70
2022/10/10 08:23:14;;;;;;;17.20;13.00;;;17.30;30.60;;;;;;5010823;28;20475;-69
2022/10/10 08:25:40;;;;;;;19.00;12.80;;;17.50;30.20;;;;;;5009029;28;20459;-70
2022/10/10 08:28:07;;;;;;;20.30;13.53;;;17.70;28.70;;;;;;5006573;28;20482;-71
2022/10/10 08:30:40;;;;;;;16.67;11.93;;;17.70;28.40;;;;;;5002743;28;20987;-70
2022/10/10 08:33:07;;;;;;;22.20;12.87;;;17.80;28.00;;;;;;5005451;28;20479;-69
2022/10/10 08:35:37;;;;;;;16.10;11.47;;;18.10;27.70;;;;;;5004915;28;20456;-68
2022/10/10 08:38:04;;;;;;;19.10;13.23;;;18.40;27.40;;;;;;5006494;28;20976;-70
2022/10/10 08:40:31;;;;;;;17.80;12.60;;;18.60;27.00;;;;;;5028448;23;20597;-66
2022/10/10 08:43:06;;;;;;;15.43;11.27;;;18.80;26.00;;;;;;5023052;28;20482;-67
2022/10/10 08:45:38;;;;;;;19.53;11.00;;;19.00;25.70;;;;;;5021811;28;20497;-65
2022/10/10 08:48:07;;;;;;;15.27;11.70;;;19.20;25.10;;;;;;5016826;28;20464;-64
2022/10/10 08:50:38;;;;;;;15.23;10.70;;;19.30;24.20;;;;;;5019220;28;20474;-66
2022/10/10 08:53:11;;;;;;;14.33;11.70;;;19.50;23.90;;;;;;5022535;28;20858;-67
2022/10/10 08:55:42;;;;;;;16.13;11.30;;;19.90;23.30;;;;;;5024728;28;20894;-66
2022/10/10 08:58:16;;;;;;;19.23;11.57;;;20.00;22.20;;;;;;5022327;28;20459;-65
2022/10/10 09:00:47;;;;;;;15.67;10.60;;;20.10;22.10;;;;;;5025573;28;20470;-66
2022/10/10 09:03:23;;;;;;;15.83;11.13;;;20.10;22.00;;;;;;5027591;28;20489;-63
2022/10/10 09:06:04;;;;;;;14.23;10.07;;;20.10;21.60;;;;;;5020125;28;20478;-67
2022/10/10 09:08:45;;;;;;;14.60;10.20;;;20.00;21.90;;;;;;5025816;28;20459;-63
2022/10/10 09:11:23;;;;;;;15.23;9.87;;;20.00;22.20;;;;;;5021638;28;20469;-64
2022/10/10 09:14:03;;;;;;;16.40;10.00;;;19.90;21.60;;;;;;5022465;28;20467;-66
2022/10/10 09:16:38;;;;;;;16.40;9.70;;;19.80;22.00;;;;;;5020635;28;20485;-64
2022/10/10 09:19:23;;;;;;;15.30;11.47;;;19.70;22.60;;;;;;5028360;28;20506;-65
2022/10/10 09:21:53;;;;;;;15.63;10.50;;;19.60;22.70;;;;;;5021487;28;20501;-65
2022/10/10 09:24:23;;;;;;;13.63;9.90;;;19.40;23.30;;;;;;5024862;28;20479;-64
2022/10/10 09:26:55;;;;;;;14.97;10.93;;;19.30;23.50;;;;;;5019300;28;20543;-64
2022/10/10 09:29:31;;;;;;;16.10;10.03;;;19.20;23.70;;;;;;5020788;28;20484;-64
2022/10/10 09:32:08;;;;;;;12.77;9.20;;;19.10;23.90;;;;;;5014203;28;20497;-64
2022/10/10 09:34:38;;;;;;;15.03;10.30;;;19.10;24.10;;;;;;5025093;28;20471;-63
2022/10/10 09:37:13;;;;;;;15.43;10.20;;;19.00;24.40;;;;;;5028246;28;20903;-64
2022/10/10 09:39:46;;;;;;;12.10;9.20;;;19.00;25.70;;;;;;5022181;28;20492;-65
2022/10/10 09:42:15;;;;;;;15.80;10.60;;;18.90;25.10;;;;;;5026877;28;20459;-64
2022/10/10 09:44:43;;;;;;;11.53;8.90;;;18.80;25.20;;;;;;5015311;28;20475;-63
2022/10/10 09:47:13;;;;;;;13.20;9.43;;;18.70;25.80;;;;;;5033430;28;20469;-62
2022/10/10 09:49:41;;;;;;;12.57;9.33;;;18.70;26.00;;;;;;5017224;28;20502;-60
2022/10/10 09:52:26;;;;;;;16.93;10.60;;;18.70;26.40;;;;;;5029336;28;20459;-60
2022/10/10 09:54:58;;;;;;;15.03;9.80;;;18.70;26.70;;;;;;5023159;28;20963;-60
2022/10/10 09:57:29;;;;;;;17.20;10.27;;;18.80;26.80;;;;;;5023521;28;20467;-60
2022/10/10 09:59:56;;;;;;;13.50;9.40;;;18.90;26.90;;;;;;5014429;28;20476;-63
2022/10/10 10:02:26;;;;;;;17.70;10.50;;;19.00;26.40;;;;;;5023271;28;20478;-64
2022/10/10 10:04:53;;;;;;;13.67;9.60;;;19.10;26.20;;;;;;5024531;28;20529;-62
2022/10/10 10:07:25;;;;;;;12.90;9.70;;;19.10;25.80;;;;;;5020875;28;20953;-62
2022/10/10 10:09:54;;;;;;;13.40;9.57;;;19.10;25.50;;;;;;5025583;28;20497;-65
2022/10/10 10:12:23;;;;;;;13.33;9.60;;;19.00;25.40;;;;;;5024220;28;20463;-66
2022/10/10 10:14:52;;;;;;;14.90;9.17;;;19.00;25.70;;;;;;5025550;28;20834;-66
2022/10/10 10:17:24;;;;;;;13.53;10.07;;;18.90;26.00;;;;;;5027379;28;20459;-65
2022/10/10 10:19:51;;;;;;;15.40;9.23;;;18.90;26.20;;;;;;5024002;28;20486;-63
2022/10/10 10:22:39;;;;;;;11.40;8.40;;;18.80;26.30;;;;;;5020211;28;20462;-63
2022/10/10 10:25:29;;;;;;;13.30;10.03;;;18.90;26.30;;;;;;5018314;28;20498;-69
2022/10/10 10:28:14;;;;;;;13.37;9.30;;;19.00;26.20;;;;;;5015920;28;20466;-66
2022/10/10 10:30:42;;;;;;;12.60;9.70;;;19.10;26.00;;;;;;5016624;28;20525;-68
2022/10/10 10:33:20;;;;;;;14.83;10.13;;;19.10;25.90;;;;;;5024170;28;20466;-63
2022/10/10 10:35:52;;;;;;;12.10;10.00;;;19.10;25.90;;;;;;5024837;28;20459;-64
2022/10/10 10:38:33;;;;;;;13.07;9.70;;;19.20;25.80;;;;;;5021737;28;20466;-61
2022/10/10 10:41:07;;;;;;;12.33;8.47;;;19.40;25.50;;;;;;5025463;28;20455;-65
2022/10/10 10:43:54;;;;;;;11.30;8.40;;;19.50;25.50;;;;;;5026144;28;20498;-62
2022/10/10 10:46:31;;;;;;;15.30;10.50;;;19.70;25.20;;;;;;5024890;28;20459;-67
2022/10/10 10:49:02;;;;;;;13.00;9.53;;;19.80;24.60;;;;;;5016099;28;20845;-67
2022/10/10 10:52:05;;;;;;;13.27;9.77;;;19.90;24.50;;;;;;5023123;28;20460;-67
2022/10/10 10:54:48;;;;;;;14.00;9.27;;;20.10;24.20;;;;;;5022066;28;20454;-65
2022/10/10 10:57:18;;;;;;;15.30;9.77;;;20.30;23.50;;;;;;5018439;28;20459;-66
2022/10/10 10:59:52;;;;;;;11.90;9.33;;;20.50;23.10;;;;;;5016921;28;20481;-64
2022/10/10 11:02:37;;;;;;;11.53;8.50;;;20.70;22.50;;;;;;5024001;28;20486;-64
2022/10/10 11:05:43;;;;;;;16.43;9.40;;;20.60;22.30;;;;;;5021004;28;20479;-68
2022/10/10 11:08:31;;;;;;;12.47;8.67;;;20.50;22.60;;;;;;4938908;28;20498;-64
2022/10/10 11:11:09;;;;;;;10.07;8.10;;;20.60;22.70;;;;;;5012183;28;20466;-63
2022/10/10 11:13:43;;;;;;;12.70;8.50;;;20.80;22.50;;;;;;5022626;28;20455;-63
2022/10/10 11:16:19;;;;;;;14.30;8.17;;;20.90;22.70;;;;;;5026688;28;20478;-62
2022/10/10 11:18:53;;;;;;;15.00;8.80;;;21.20;22.60;;;;;;5017702;28;20856;-62
2022/10/10 11:21:25;;;;;;;14.17;8.60;;;21.20;21.90;;;;;;5019821;28;20465;-62
2022/10/10 11:23:57;;;;;;;11.30;8.23;;;21.20;21.60;;;;;;5012984;28;20490;-60
2022/10/10 11:26:29;;;;;;;13.40;8.13;;;21.20;21.60;;;;;;5023033;28;20464;-61
2022/10/10 11:29:00;;;;;;;13.60;8.10;;;21.20;22.00;;;;;;5023094;28;20478;-61
2022/10/10 11:31:31;;;;;;;14.47;8.93;;;21.30;21.60;;;;;;5022405;28;20494;-61
2022/10/10 11:34:03;;;;;;;13.47;7.67;;;21.40;21.20;;;;;;5022760;28;20451;-62
2022/10/10 11:36:37;;;;;;;12.40;7.73;;;21.40;21.20;;;;;;5024954;28;20459;-61
2022/10/10 11:39:11;;;;;;;8.37;6.40;;;21.40;21.00;;;;;;5021388;28;20496;-61
2022/10/10 11:41:41;;;;;;;11.90;7.30;;;21.30;21.10;;;;;;5019335;28;20492;-61
2022/10/10 11:44:14;;;;;;;10.50;6.17;;;21.20;21.20;;;;;;5024756;28;20871;-61
2022/10/10 11:46:45;;;;;;;11.07;6.23;;;21.10;21.50;;;;;;5022837;28;20463;-61
2022/10/10 11:49:21;;;;;;;8.83;5.97;;;21.10;21.60;;;;;;5019718;28;20483;-60
2022/10/10 11:52:08;;;;;;;11.60;6.70;;;21.00;21.70;;;;;;5022658;28;20465;-60
2022/10/10 11:54:41;;;;;;;11.13;6.50;;;20.90;21.40;;;;;;5025903;28;20463;-62
2022/10/10 11:57:14;;;;;;;10.33;6.00;;;20.90;21.60;;;;;;5021665;28;21266;-61
2022/10/10 11:59:46;;;;;;;10.27;7.10;;;21.00;21.60;;;;;;5020489;28;21136;-61
2022/10/10 12:02:18;;;;;;;11.17;6.63;;;21.00;21.60;;;;;;5026100;28;20871;-60
2022/10/10 12:04:45;;;;;;;9.43;6.40;;;21.00;21.20;;;;;;5019770;28;20493;-66
2022/10/10 12:07:19;;;;;;;13.67;6.33;;;21.00;21.40;;;;;;5022410;28;20467;-58
2022/10/10 12:09:51;;;;;;;10.00;6.97;;;21.00;21.50;;;;;;5022976;28;20489;-61
2022/10/10 12:12:21;;;;;;;10.43;6.33;;;20.90;21.90;;;;;;5022430;28;20471;-61
2022/10/10 12:14:53;;;;;;;9.73;6.10;;;20.90;21.70;;;;;;5020565;28;20463;-62
2022/10/10 12:17:21;;;;;;;12.70;6.80;;;20.90;22.00;;;;;;5022848;28;20481;-60
2022/10/10 12:19:50;;;;;;;14.43;7.00;;;20.90;21.90;;;;;;5014372;28;20490;-61
2022/10/10 12:22:24;;;;;;;16.70;7.43;;;20.90;21.90;;;;;;5015914;28;20475;-62
2022/10/10 12:25:22;;;;;;;12.77;6.80;;;21.00;21.90;;;;;;5024917;28;21194;-62
2022/10/10 12:28:03;;;;;;;10.30;6.40;;;21.10;21.70;;;;;;5024117;28;20466;-61
2022/10/10 12:30:30;;;;;;;9.23;5.90;;;21.20;21.30;;;;;;5022907;28;20485;-61
2022/10/10 12:32:57;;;;;;;16.43;5.83;;;21.20;20.70;;;;;;5025595;28;20459;-59
2022/10/10 12:35:40;;;;;;;11.33;5.50;;;21.20;20.90;;;;;;5028827;28;20950;-61
2022/10/10 12:38:20;;;;;;;10.30;5.23;;;21.10;21.00;;;;;;5018995;28;21657;-60
2022/10/10 12:41:10;;;;;;;16.37;6.20;;;21.00;21.10;;;;;;5016236;28;20494;-60
2022/10/10 12:43:40;;;;;;;10.73;4.97;;;20.90;21.70;;;;;;5022147;28;21231;-61